Gyor, Hungary
Current Conditions -  °F | °C
As of 4:45 AM on Sunday 26 Oct 2014 (Local Time) from LHPR Reporting Station
Haze Haze  
Wind Chill: 37°   Ceiling: Unl
Heat Index: 37°   Visibility: 1.2mi
Dew Point: 37°   Wind: 3mph
Humidity: 100%   Direction: 270°W
Pressure: 30.36"   Gusts: NA
Location:  47.69°N, 17.64°E
Report Text: LHPR 260245Z 27003KT 2000 BR NSC 03/03 Q1028
Loading
Personal Weather Stations






























Interactive Weather Map
Tropical Storm Tracking
New forecast layout! Learn more

10-Day Weather Forecast

Advertisements
Track Severe Weather on mobile